createdAt,value
2018-11-23T00:00:23.904Z,8.75
2018-11-23T00:02:53.954Z,9.80
2018-11-23T00:05:23.500Z,8.53
2018-11-23T00:07:53.896Z,9.07
2018-11-23T00:10:24.122Z,9.10
2018-11-23T00:12:53.309Z,9.07
2018-11-23T00:15:23.622Z,8.93
2018-11-23T00:17:52.948Z,7.70
2018-11-23T00:20:23.475Z,9.07
2018-11-23T00:22:52.567Z,8.67
2018-11-23T00:25:23.322Z,7.33
2018-11-23T00:27:52.911Z,8.33
2018-11-23T00:30:23.438Z,9.17
2018-11-23T00:32:53.049Z,9.17
2018-11-23T00:35:23.579Z,8.63
2018-11-23T00:37:53.272Z,8.67
2018-11-23T00:40:23.719Z,9.20
2018-11-23T00:42:53.331Z,8.28
2018-11-23T00:45:22.476Z,8.60
2018-11-23T00:47:53.062Z,7.97
2018-11-23T00:50:23.556Z,8.53
2018-11-23T00:55:46.210Z,6.73
2018-11-23T01:04:07.694Z,8.50
2018-11-23T01:06:37.026Z,9.17
2018-11-23T01:09:10.796Z,7.93
2018-11-23T01:11:40.343Z,8.13
2018-11-23T01:14:09.451Z,6.80
2018-11-23T01:16:38.593Z,9.10
2018-11-23T01:19:08.199Z,8.00
2018-11-23T01:21:37.749Z,8.80
2018-11-23T01:24:07.078Z,8.80
2018-11-23T01:26:36.188Z,8.80
2018-11-23T01:29:05.609Z,8.80
2018-11-23T01:31:34.961Z,8.20
2018-11-23T01:34:04.534Z,7.80
2018-11-23T01:36:33.845Z,8.53
2018-11-23T01:39:04.285Z,8.00
2018-11-23T01:41:33.627Z,8.53
2018-11-23T01:44:02.960Z,7.83
2018-11-23T01:46:32.072Z,8.70
2018-11-23T01:49:01.435Z,8.53
2018-11-23T01:51:30.758Z,8.40
2018-11-23T01:54:00.099Z,7.55
2018-11-23T01:56:29.748Z,7.35
2018-11-23T01:58:59.054Z,7.80
2018-11-23T02:01:28.155Z,9.07
2018-11-23T02:03:57.249Z,8.07
2018-11-23T02:06:26.590Z,8.73
2018-11-23T02:08:56.141Z,9.70
2018-11-23T02:11:25.691Z,9.20
2018-11-23T02:13:54.996Z,8.70
2018-11-23T02:16:24.462Z,8.07
2018-11-23T02:18:54.378Z,7.10
2018-11-23T02:21:23.745Z,8.10
2018-11-23T02:23:53.073Z,7.93
2018-11-23T02:26:22.403Z,8.03
2018-11-23T02:28:51.738Z,8.43
2018-11-23T02:31:26.754Z,8.23
2018-11-23T02:33:56.346Z,9.00
2018-11-23T02:36:25.717Z,8.18
2018-11-23T02:38:55.467Z,8.97
2018-11-23T02:41:24.806Z,8.20
2018-11-23T02:43:54.112Z,8.83
2018-11-23T02:46:23.229Z,8.30
2018-11-23T02:48:52.773Z,8.70
2018-11-23T02:51:22.094Z,9.23
2018-11-23T02:53:51.426Z,9.43
2018-11-23T02:56:21.009Z,9.43
2018-11-23T02:58:50.334Z,7.67
2018-11-23T03:01:19.654Z,7.90
2018-11-23T03:03:49.210Z,8.43
2018-11-23T03:06:18.526Z,8.67
2018-11-23T03:08:47.882Z,7.60
2018-11-23T03:11:17.203Z,8.67
2018-11-23T03:13:46.545Z,8.07
2018-11-23T03:16:16.098Z,8.00
2018-11-23T03:18:45.655Z,8.53
2018-11-23T03:21:14.971Z,7.73
2018-11-23T03:23:44.069Z,7.60
2018-11-23T03:26:13.193Z,9.10
2018-11-23T03:28:42.520Z,8.53
2018-11-23T03:31:12.393Z,8.20
2018-11-23T03:33:41.177Z,8.27
2018-11-23T03:36:10.717Z,8.00
2018-11-23T03:38:40.046Z,7.57
2018-11-23T03:41:09.395Z,8.60
2018-11-23T03:43:38.954Z,8.63
2018-11-23T03:46:09.226Z,9.27
2018-11-23T03:48:38.897Z,7.93
2018-11-23T03:51:08.733Z,8.07
2018-11-23T03:53:38.097Z,8.30
2018-11-23T03:56:07.447Z,8.23
2018-11-23T03:58:37.010Z,8.60
2018-11-23T04:01:06.344Z,7.97
2018-11-23T04:03:35.449Z,7.83
2018-11-23T04:06:05.392Z,7.83
2018-11-23T04:08:34.495Z,8.30
2018-11-23T04:11:03.590Z,8.07
2018-11-23T04:13:32.690Z,9.07
2018-11-23T04:16:02.522Z,8.40
2018-11-23T04:18:31.863Z,8.90
2018-11-23T04:21:02.497Z,8.10
2018-11-23T04:23:33.054Z,7.75
2018-11-23T04:26:03.013Z,8.48
2018-11-23T04:28:32.110Z,9.10
2018-11-23T04:31:01.499Z,8.70
2018-11-23T04:33:30.817Z,9.03
2018-11-23T04:36:00.153Z,8.47
2018-11-23T04:38:29.472Z,8.80
2018-11-23T04:40:58.837Z,8.07
2018-11-23T04:43:28.405Z,8.80
2018-11-23T04:45:57.705Z,8.37
2018-11-23T04:48:27.063Z,8.97
2018-11-23T04:50:56.627Z,9.70
2018-11-23T04:53:25.937Z,8.47
2018-11-23T04:55:55.035Z,8.77
2018-11-23T04:58:24.149Z,8.57
2018-11-23T05:00:53.530Z,8.45
2018-11-23T05:03:22.858Z,8.40
2018-11-23T05:05:52.206Z,9.73
2018-11-23T05:08:21.580Z,8.57
2018-11-23T05:10:50.889Z,7.90
2018-11-23T05:13:20.457Z,8.73
2018-11-23T05:15:50.093Z,8.30
2018-11-23T05:18:19.395Z,8.70
2018-11-23T05:20:48.510Z,8.60
2018-11-23T05:23:17.608Z,8.43
2018-11-23T05:25:46.958Z,8.87
2018-11-23T05:28:16.518Z,7.80
2018-11-23T05:30:46.563Z,8.60
2018-11-23T05:33:16.413Z,9.13
2018-11-23T05:35:45.774Z,8.73
2018-11-23T05:38:15.338Z,9.33
2018-11-23T05:40:44.661Z,8.77
2018-11-23T05:43:13.753Z,8.67
2018-11-23T05:45:42.872Z,7.63
2018-11-23T05:48:12.223Z,8.77
2018-11-23T05:50:41.541Z,9.20
2018-11-23T05:53:11.397Z,9.50
2018-11-23T05:55:40.720Z,7.93
2018-11-23T05:58:10.268Z,9.60
2018-11-23T06:00:39.594Z,8.63
2018-11-23T06:03:09.190Z,9.33
2018-11-23T06:05:38.497Z,8.20
2018-11-23T06:08:07.611Z,8.67
2018-11-23T06:10:36.958Z,8.70
2018-11-23T06:13:06.269Z,9.37
2018-11-23T06:15:35.619Z,9.50
2018-11-23T06:18:05.042Z,9.00
2018-11-23T06:20:34.152Z,9.00
2018-11-23T06:23:03.548Z,8.73
2018-11-23T06:25:33.855Z,9.07
2018-11-23T06:28:02.956Z,8.17
2018-11-23T06:30:32.310Z,8.00
2018-11-23T06:33:07.310Z,9.10
2018-11-23T06:35:36.419Z,8.73
2018-11-23T06:38:05.549Z,9.10
2018-11-23T06:40:34.898Z,8.97
2018-11-23T06:43:04.733Z,8.87
2018-11-23T06:45:36.486Z,8.87
2018-11-23T06:48:06.298Z,8.13
2018-11-23T06:50:35.881Z,8.37
2018-11-23T06:53:05.461Z,8.07
2018-11-23T06:55:34.782Z,8.87
2018-11-23T06:58:03.913Z,8.30
2018-11-23T07:00:33.021Z,8.80
2018-11-23T07:03:02.372Z,9.17
2018-11-23T07:05:31.748Z,8.43
2018-11-23T07:08:00.892Z,9.50
2018-11-23T07:10:29.979Z,8.30
2018-11-23T07:12:59.825Z,8.80
2018-11-23T07:15:29.160Z,8.37
2018-11-23T07:17:58.743Z,8.97
2018-11-23T07:20:28.070Z,7.72
2018-11-23T07:22:57.429Z,7.60
2018-11-23T07:25:27.218Z,7.90
2018-11-23T07:27:56.538Z,8.18
2018-11-23T07:30:27.051Z,9.03
2018-11-23T07:32:57.386Z,9.40
2018-11-23T07:35:26.721Z,7.97
2018-11-23T07:37:56.097Z,7.53
2018-11-23T07:40:32.853Z,7.50
2018-11-23T07:43:02.426Z,7.92
2018-11-23T07:50:26.300Z,8.90
2018-11-23T07:52:55.416Z,8.90
2018-11-23T07:55:24.763Z,7.67
2018-11-23T07:57:54.113Z,9.03
2018-11-23T08:00:24.605Z,9.17
2018-11-23T08:02:53.981Z,19.47
2018-11-23T08:05:23.134Z,19.43
2018-11-23T08:07:52.217Z,17.20
2018-11-23T08:10:20.826Z,15.00
2018-11-23T08:12:51.830Z,13.80
2018-11-23T08:15:22.861Z,14.83
2018-11-23T08:17:52.853Z,13.50
2018-11-23T08:20:23.613Z,13.40
2018-11-23T08:22:53.206Z,12.90
2018-11-23T08:25:24.104Z,14.20
2018-11-23T08:27:54.878Z,13.77
2018-11-23T08:30:26.965Z,12.25
2018-11-23T08:32:56.861Z,14.07
2018-11-23T08:35:27.230Z,13.70
2018-11-23T08:37:56.856Z,15.50
2018-11-23T08:40:27.035Z,16.30
2018-11-23T08:42:56.955Z,20.63
2018-11-23T08:45:27.185Z,20.50
2018-11-23T08:47:56.298Z,22.50
2018-11-23T08:50:30.052Z,20.20
2018-11-23T08:53:00.043Z,20.80
2018-11-23T08:55:29.723Z,20.70
2018-11-23T08:58:00.218Z,21.33
2018-11-23T09:00:29.338Z,18.90
2018-11-23T09:02:59.963Z,17.90
2018-11-23T09:05:29.310Z,17.87
2018-11-23T09:07:58.881Z,17.80
2018-11-23T09:10:28.811Z,16.27
2018-11-23T09:12:59.098Z,16.80
2018-11-23T09:15:28.207Z,16.90
2018-11-23T09:17:57.550Z,14.13
2018-11-23T09:20:27.122Z,14.58
2018-11-23T09:22:56.738Z,14.97
2018-11-23T09:25:26.016Z,13.25
2018-11-23T09:27:55.419Z,13.10
2018-11-23T09:30:26.148Z,14.03
2018-11-23T09:32:56.205Z,12.82
2018-11-23T09:35:25.808Z,14.50
2018-11-23T09:37:55.171Z,12.43
2018-11-23T09:40:26.001Z,12.67
2018-11-23T09:42:56.160Z,13.10
2018-11-23T09:45:27.177Z,13.43
2018-11-23T09:47:58.133Z,11.57
2018-11-23T09:50:27.725Z,11.40
2018-11-23T09:52:58.273Z,12.23
2018-11-23T09:55:28.705Z,11.48
2018-11-23T09:57:58.327Z,11.97
2018-11-23T10:00:30.184Z,12.20
2018-11-23T10:02:59.824Z,13.00
2018-11-23T10:05:30.256Z,12.50
2018-11-23T10:08:02.070Z,12.03
2018-11-23T10:10:31.202Z,12.90
2018-11-23T10:13:00.618Z,12.03
2018-11-23T10:15:31.181Z,12.47
2018-11-23T10:18:00.682Z,11.90
2018-11-23T10:20:31.639Z,11.70
2018-11-23T10:23:01.028Z,10.60
2018-11-23T10:25:31.782Z,11.60
2018-11-23T10:28:00.891Z,10.70
2018-11-23T10:30:31.627Z,11.93
2018-11-23T10:33:02.743Z,11.47
2018-11-23T10:35:32.695Z,11.20
2018-11-23T10:38:03.723Z,11.60
2018-11-23T10:40:34.638Z,11.25
2018-11-23T10:43:04.924Z,12.63
2018-11-23T10:45:34.960Z,11.00
2018-11-23T10:48:05.618Z,11.00
2018-11-23T10:50:36.621Z,11.05
2018-11-23T10:53:06.009Z,11.43
2018-11-23T10:55:36.600Z,11.10
2018-11-23T10:58:05.979Z,11.70
2018-11-23T11:00:40.872Z,11.17
2018-11-23T11:03:15.516Z,11.23
2018-11-23T11:08:34.180Z,10.90
2018-11-23T11:11:04.193Z,12.20
2018-11-23T11:13:33.592Z,11.33
2018-11-23T11:16:02.707Z,10.63
2018-11-23T11:18:31.915Z,11.53
2018-11-23T11:21:01.074Z,10.43
2018-11-23T11:23:30.605Z,10.90
2018-11-23T11:25:59.736Z,10.93
2018-11-23T11:28:29.159Z,10.90
2018-11-23T11:30:58.749Z,10.72
2018-11-23T11:33:28.774Z,10.50
2018-11-23T11:35:58.202Z,11.77
2018-11-23T11:38:27.870Z,10.30
2018-11-23T11:40:57.542Z,10.20
2018-11-23T11:43:27.129Z,9.93
2018-11-23T11:45:56.952Z,10.33
2018-11-23T11:48:26.344Z,10.73
2018-11-23T11:50:55.690Z,10.60
2018-11-23T11:53:24.839Z,9.40
2018-11-23T11:55:54.015Z,9.13
2018-11-23T11:58:23.585Z,8.93
2018-11-23T12:00:53.050Z,10.20
2018-11-23T12:03:22.706Z,9.18
2018-11-23T12:05:52.781Z,9.00
2018-11-23T12:08:21.900Z,9.30
2018-11-23T12:10:51.917Z,9.60
2018-11-23T12:13:21.661Z,9.10
2018-11-23T12:15:51.009Z,10.03
2018-11-23T12:18:20.445Z,9.47
2018-11-23T12:20:49.846Z,9.45
2018-11-23T12:23:19.459Z,8.87
2018-11-23T12:25:48.936Z,9.47
2018-11-23T12:28:18.322Z,10.40
2018-11-23T12:30:47.741Z,9.25
2018-11-23T12:33:16.982Z,9.07
2018-11-23T12:35:46.366Z,9.20
2018-11-23T12:38:15.928Z,8.73
2018-11-23T12:40:45.592Z,8.73
2018-11-23T12:43:14.943Z,8.05
2018-11-23T12:45:44.126Z,8.40
2018-11-23T12:48:13.323Z,9.13
2018-11-23T12:50:42.572Z,9.00
2018-11-23T12:53:11.946Z,8.03
2018-11-23T12:55:41.345Z,7.43
2018-11-23T12:58:10.954Z,9.75
2018-11-23T13:00:40.401Z,8.13
2018-11-23T13:03:09.907Z,8.30
2018-11-23T13:05:39.907Z,8.07
2018-11-23T13:08:09.277Z,8.57
2018-11-23T13:10:38.634Z,8.93
2018-11-23T13:13:08.206Z,8.10
2018-11-23T13:18:25.061Z,8.63
2018-11-23T13:20:54.841Z,8.50
2018-11-23T13:23:24.450Z,7.80
2018-11-23T13:25:53.806Z,8.23
2018-11-23T13:28:23.000Z,8.67
2018-11-23T13:30:52.134Z,8.03
2018-11-23T13:33:21.490Z,8.27
2018-11-23T13:35:51.514Z,8.37
2018-11-23T13:38:21.108Z,7.10
2018-11-23T13:40:50.501Z,7.83
2018-11-23T13:43:19.649Z,8.20
2018-11-23T13:45:49.077Z,8.10
2018-11-23T13:48:20.118Z,8.20
2018-11-23T13:50:48.334Z,7.30
2018-11-23T13:53:17.851Z,7.50
2018-11-23T13:55:47.197Z,6.23
2018-11-23T13:58:17.913Z,6.83
2018-11-23T14:00:47.177Z,7.67
2018-11-23T14:03:16.390Z,6.95
2018-11-23T14:05:45.994Z,6.83
2018-11-23T14:08:15.588Z,7.97
2018-11-23T14:10:45.149Z,7.13
2018-11-23T14:13:14.544Z,6.20
2018-11-23T14:15:43.925Z,7.67
2018-11-23T14:18:13.255Z,7.33
2018-11-23T14:20:42.637Z,7.47
2018-11-23T14:23:11.965Z,7.25
2018-11-23T14:25:41.089Z,6.10
2018-11-23T14:28:10.263Z,6.53
2018-11-23T14:30:39.645Z,7.10
2018-11-23T14:33:09.373Z,7.05
2018-11-23T14:35:38.957Z,6.10
2018-11-23T14:38:08.825Z,6.60
2018-11-23T14:40:37.919Z,6.27
2018-11-23T14:43:07.294Z,7.77
2018-11-23T14:45:36.869Z,6.83
2018-11-23T14:48:07.254Z,6.80
2018-11-23T14:50:41.752Z,5.90
2018-11-23T14:53:10.863Z,6.60
2018-11-23T14:55:40.243Z,6.50
2018-11-23T14:58:09.895Z,6.47
2018-11-23T15:00:39.473Z,6.20
2018-11-23T15:03:09.232Z,5.73
2018-11-23T15:05:38.988Z,6.60
2018-11-23T15:08:08.739Z,6.47
2018-11-23T15:10:38.365Z,7.37
2018-11-23T15:13:07.676Z,6.57
2018-11-23T15:15:38.343Z,6.97
2018-11-23T15:18:08.109Z,6.90
2018-11-23T15:20:38.780Z,7.20
2018-11-23T15:23:09.847Z,7.40
2018-11-23T15:25:39.218Z,7.03
2018-11-23T15:28:08.993Z,7.17
2018-11-23T15:30:39.195Z,7.57
2018-11-23T15:33:09.420Z,8.27
2018-11-23T15:35:39.488Z,8.97
2018-11-23T15:38:11.121Z,7.37
2018-11-23T15:40:40.466Z,7.60
2018-11-23T15:43:11.971Z,7.23
2018-11-23T15:45:41.381Z,7.47
2018-11-23T15:48:10.826Z,7.73
2018-11-23T15:50:41.196Z,7.53
2018-11-23T15:53:12.038Z,7.87
2018-11-23T15:55:41.730Z,6.80
2018-11-23T15:58:12.912Z,6.77
2018-11-23T16:00:43.609Z,7.17
2018-11-23T16:03:13.954Z,7.60
2018-11-23T16:05:44.028Z,7.83
2018-11-23T16:08:14.820Z,6.53
2018-11-23T16:10:43.928Z,6.20
2018-11-23T16:13:13.582Z,6.27
2018-11-23T16:15:42.713Z,6.47
2018-11-23T16:18:12.238Z,6.70
2018-11-23T16:20:42.754Z,6.17
2018-11-23T16:23:14.174Z,6.57
2018-11-23T16:25:43.831Z,6.67
2018-11-23T16:28:13.573Z,7.20
2018-11-23T16:30:45.030Z,6.10
2018-11-23T16:33:17.224Z,7.37
2018-11-23T16:35:46.392Z,6.67
2018-11-23T16:38:18.327Z,6.23
2018-11-23T16:40:50.582Z,7.00
2018-11-23T16:43:20.182Z,6.67
2018-11-23T16:45:49.769Z,7.00
2018-11-23T16:48:20.078Z,7.13
2018-11-23T16:50:49.766Z,5.73
2018-11-23T16:53:19.127Z,6.27
2018-11-23T16:55:48.550Z,6.20
2018-11-23T16:58:18.198Z,6.47
2018-11-23T17:00:48.817Z,5.97
2018-11-23T17:03:20.064Z,6.17
2018-11-23T17:05:51.017Z,6.00
2018-11-23T17:08:20.977Z,5.37
2018-11-23T17:10:50.410Z,5.33
2018-11-23T17:13:19.770Z,6.00
2018-11-23T17:15:49.149Z,6.60
2018-11-23T17:18:18.339Z,5.87
2018-11-23T17:20:47.798Z,6.40
2018-11-23T17:23:17.374Z,6.42
2018-11-23T17:25:47.368Z,6.87
2018-11-23T17:28:16.491Z,6.77
2018-11-23T17:30:45.767Z,6.00
2018-11-23T17:33:15.049Z,5.70
2018-11-23T17:35:44.631Z,5.90
2018-11-23T17:38:14.995Z,5.40
2018-11-23T17:40:44.334Z,6.97
2018-11-23T17:43:14.191Z,5.45
2018-11-23T17:45:43.868Z,5.67
2018-11-23T17:48:13.201Z,5.20
2018-11-23T17:50:42.610Z,6.33
2018-11-23T17:55:48.434Z,5.80
2018-11-23T17:58:17.884Z,6.03
2018-11-23T18:00:46.985Z,5.90
2018-11-23T18:03:16.098Z,5.63
2018-11-23T18:05:45.467Z,5.70
2018-11-23T18:08:14.853Z,6.03
2018-11-23T18:10:43.981Z,5.30
2018-11-23T18:13:13.763Z,6.10
2018-11-23T18:15:42.860Z,5.40
2018-11-23T18:18:12.875Z,5.87
2018-11-23T18:20:42.305Z,5.70
2018-11-23T18:23:11.906Z,6.27
2018-11-23T18:25:41.537Z,6.33
2018-11-23T18:28:10.950Z,6.17
2018-11-23T18:30:40.431Z,6.03
2018-11-23T18:33:10.006Z,6.40
2018-11-23T18:35:39.632Z,6.00
2018-11-23T18:38:09.426Z,6.20
2018-11-23T18:40:38.774Z,5.50
2018-11-23T18:43:08.170Z,5.90
2018-11-23T18:45:37.861Z,5.63
2018-11-23T18:48:07.196Z,5.37
2018-11-23T18:50:36.673Z,5.83
2018-11-23T18:53:06.270Z,6.17
2018-11-23T18:55:35.642Z,6.40
2018-11-23T18:58:06.083Z,5.60
2018-11-23T19:00:35.708Z,6.43
2018-11-23T19:03:05.677Z,5.92
2018-11-23T19:05:35.777Z,6.03
2018-11-23T19:08:05.613Z,5.60
2018-11-23T19:10:35.192Z,5.90
2018-11-23T19:13:05.061Z,6.80
2018-11-23T19:15:34.486Z,5.95
2018-11-23T19:18:04.082Z,7.33
2018-11-23T19:20:33.882Z,6.70
2018-11-23T19:23:03.495Z,6.10
2018-11-23T19:25:32.855Z,6.50
2018-11-23T19:28:01.974Z,5.70
2018-11-23T19:30:31.110Z,6.30
2018-11-23T19:33:01.641Z,5.23
2018-11-23T19:35:30.029Z,6.30
2018-11-23T19:37:59.560Z,5.60
2018-11-23T19:40:29.144Z,6.20
2018-11-23T19:42:58.738Z,5.90
2018-11-23T19:45:28.114Z,6.00
2018-11-23T19:47:57.775Z,7.10
2018-11-23T19:50:27.845Z,7.30
2018-11-23T19:52:57.193Z,6.83
2018-11-23T19:55:26.339Z,5.80
2018-11-23T19:57:55.771Z,6.83
2018-11-23T20:00:25.597Z,5.90
2018-11-23T20:02:54.760Z,7.20
2018-11-23T20:05:23.910Z,7.30
2018-11-23T20:07:54.557Z,7.60
2018-11-23T20:10:23.938Z,5.97
2018-11-23T20:12:57.412Z,7.83
2018-11-23T20:15:27.128Z,7.20
2018-11-23T20:17:56.732Z,6.10
2018-11-23T20:20:26.246Z,6.63
2018-11-23T20:22:55.576Z,7.03
2018-11-23T20:25:25.013Z,6.77
2018-11-23T20:27:54.169Z,5.90
2018-11-23T20:30:23.834Z,7.10
2018-11-23T20:32:53.213Z,5.83
2018-11-23T20:35:23.474Z,6.50
2018-11-23T20:37:52.846Z,6.17
2018-11-23T20:40:22.554Z,7.10
2018-11-23T20:42:52.288Z,7.47
2018-11-23T20:45:21.753Z,6.67
2018-11-23T20:47:51.157Z,6.17
2018-11-23T20:50:20.621Z,6.07
2018-11-23T20:52:50.436Z,6.47
2018-11-23T20:55:20.318Z,7.10
2018-11-23T20:57:50.080Z,8.18
2018-11-23T21:00:22.423Z,7.97
2018-11-23T21:02:52.873Z,6.27
2018-11-23T21:05:22.269Z,7.30
2018-11-23T21:07:52.246Z,6.75
2018-11-23T21:10:25.627Z,9.10
2018-11-23T21:12:55.107Z,7.03
2018-11-23T21:15:25.137Z,7.03
2018-11-23T21:17:54.734Z,7.27
2018-11-23T21:20:24.288Z,7.77
2018-11-23T21:22:53.412Z,7.73
2018-11-23T21:25:29.109Z,7.90
2018-11-23T21:27:58.326Z,7.90
2018-11-23T21:30:27.547Z,7.70
2018-11-23T21:32:56.700Z,7.10
2018-11-23T21:35:26.459Z,7.20
2018-11-23T21:37:55.856Z,7.08
2018-11-23T21:40:25.421Z,7.62
2018-11-23T21:42:55.116Z,7.90
2018-11-23T21:45:24.496Z,6.97
2018-11-23T21:47:53.977Z,7.50
2018-11-23T21:50:25.429Z,6.72
2018-11-23T21:52:53.984Z,7.27
2018-11-23T21:55:24.038Z,7.45
2018-11-23T21:57:53.928Z,8.33
2018-11-23T22:00:23.341Z,7.60
2018-11-23T22:02:52.972Z,7.13
2018-11-23T22:05:22.641Z,6.50
2018-11-23T22:07:52.387Z,7.93
2018-11-23T22:10:22.085Z,7.03
2018-11-23T22:12:51.448Z,7.87
2018-11-23T22:15:22.207Z,7.93
2018-11-23T22:17:53.317Z,7.40
2018-11-23T22:20:24.235Z,8.40
2018-11-23T22:22:53.722Z,8.37
2018-11-23T22:25:23.235Z,8.50
2018-11-23T22:27:52.459Z,7.67
2018-11-23T22:30:26.045Z,7.00
2018-11-23T22:32:55.701Z,7.90
2018-11-23T22:35:25.806Z,8.40
2018-11-23T22:37:55.686Z,8.30
2018-11-23T22:40:24.897Z,7.83
2018-11-23T22:42:55.857Z,7.70
2018-11-23T22:45:25.220Z,7.50
2018-11-23T22:47:54.583Z,8.20
2018-11-23T22:50:24.652Z,8.30
2018-11-23T22:52:54.189Z,7.50
2018-11-23T22:55:23.360Z,8.37
2018-11-23T22:57:52.943Z,8.37
2018-11-23T23:00:25.618Z,8.03
2018-11-23T23:02:55.560Z,8.73
2018-11-23T23:05:24.947Z,8.00
2018-11-23T23:07:54.264Z,8.33
2018-11-23T23:10:23.473Z,8.40
2018-11-23T23:12:53.152Z,8.20
2018-11-23T23:15:22.658Z,8.60
2018-11-23T23:17:52.280Z,7.87
2018-11-23T23:20:22.353Z,8.10
2018-11-23T23:22:51.492Z,9.07
2018-11-23T23:25:21.060Z,8.27
2018-11-23T23:27:50.687Z,7.93
2018-11-23T23:30:20.496Z,7.93
2018-11-23T23:32:49.961Z,8.67
2018-11-23T23:35:19.629Z,8.05
2018-11-23T23:37:49.476Z,8.73
2018-11-23T23:40:19.097Z,8.60
2018-11-23T23:42:48.536Z,8.23
2018-11-23T23:45:18.645Z,10.10
2018-11-23T23:47:48.400Z,8.53
2018-11-23T23:50:21.060Z,8.37
2018-11-23T23:52:51.078Z,8.00
2018-11-23T23:55:20.689Z,9.15
2018-11-23T23:57:51.082Z,8.80
